createdAt,value
2018-04-01T00:00:34.623Z,8.85
2018-04-01T00:03:01.889Z,10.90
2018-04-01T00:05:28.937Z,9.35
2018-04-01T00:07:55.916Z,9.20
2018-04-01T00:10:22.893Z,10.30
2018-04-01T00:12:50.182Z,10.57
2018-04-01T00:15:17.937Z,10.57
2018-04-01T00:17:45.095Z,9.48
2018-04-01T00:20:12.328Z,10.18
2018-04-01T00:22:39.401Z,10.93
2018-04-01T00:25:06.376Z,13.13
2018-04-01T00:27:33.356Z,14.30
2018-04-01T00:30:00.341Z,16.00
2018-04-01T00:32:27.385Z,16.62
2018-04-01T00:34:54.441Z,19.20
2018-04-01T00:37:21.684Z,18.80
2018-04-01T00:39:48.651Z,18.60
2018-04-01T00:42:16.400Z,22.27
2018-04-01T00:44:43.392Z,20.52
2018-04-01T00:47:10.563Z,23.95
2018-04-01T00:49:37.747Z,24.40
2018-04-01T00:52:04.964Z,25.35
2018-04-01T00:54:32.044Z,24.48
2018-04-01T00:56:59.206Z,27.20
2018-04-01T00:59:26.171Z,27.83
2018-04-01T01:01:53.191Z,26.02
2018-04-01T01:04:20.167Z,26.95
2018-04-01T01:06:47.140Z,26.30
2018-04-01T01:09:14.123Z,26.77
2018-04-01T01:11:41.103Z,27.20
2018-04-01T01:14:08.091Z,25.62
2018-04-01T01:16:35.212Z,28.70
2018-04-01T01:19:02.328Z,28.70
2018-04-01T01:21:29.305Z,28.52
2018-04-01T01:23:56.279Z,27.77
2018-04-01T01:26:23.264Z,29.73
2018-04-01T01:28:50.267Z,29.77
2018-04-01T01:31:17.252Z,30.30
2018-04-01T01:33:44.304Z,34.38
2018-04-01T01:36:12.797Z,30.73
2018-04-01T01:38:40.760Z,34.03
2018-04-01T01:41:07.912Z,31.10
2018-04-01T01:43:34.892Z,33.25
2018-04-01T01:46:01.868Z,35.38
2018-04-01T01:48:28.851Z,32.28
2018-04-01T01:50:56.050Z,34.58
2018-04-01T01:53:23.047Z,34.97
2018-04-01T01:55:50.038Z,35.42
2018-04-01T01:58:17.042Z,36.17
2018-04-01T02:00:44.024Z,34.08
2018-04-01T02:03:11.033Z,35.45
2018-04-01T02:05:38.012Z,35.38
2018-04-01T02:08:05.002Z,37.35
2018-04-01T02:10:32.003Z,38.13
2018-04-01T02:12:58.989Z,35.95
2018-04-01T02:15:26.175Z,35.05
2018-04-01T02:17:53.165Z,38.03
2018-04-01T02:20:20.480Z,33.33
2018-04-01T02:22:47.448Z,37.58
2018-04-01T02:25:14.466Z,35.90
2018-04-01T02:27:41.616Z,32.53
2018-04-01T02:30:08.593Z,33.97
2018-04-01T02:32:36.341Z,34.25
2018-04-01T02:35:03.309Z,34.17
2018-04-01T02:37:30.346Z,32.97
2018-04-01T02:39:58.293Z,24.73
2018-04-01T02:42:25.453Z,23.85
2018-04-01T02:44:52.443Z,22.77
2018-04-01T02:47:19.444Z,23.17
2018-04-01T02:49:46.412Z,19.75
2018-04-01T02:52:14.160Z,21.87
2018-04-01T02:54:41.900Z,19.25
2018-04-01T02:57:08.965Z,17.45
2018-04-01T02:59:37.436Z,19.25
2018-04-01T03:02:04.500Z,18.52
2018-04-01T03:04:31.484Z,19.50
2018-04-01T03:06:58.455Z,20.70
2018-04-01T03:09:25.430Z,18.75
2018-04-01T03:11:52.507Z,15.57
2018-04-01T03:14:19.635Z,17.20
2018-04-01T03:16:48.112Z,15.93
2018-04-01T03:19:15.164Z,14.05
2018-04-01T03:21:42.138Z,15.20
2018-04-01T03:24:09.880Z,13.13
2018-04-01T03:26:37.617Z,13.38
2018-04-01T03:29:04.686Z,11.90
2018-04-01T03:31:31.659Z,13.27
2018-04-01T03:33:59.399Z,12.68
2018-04-01T03:36:26.376Z,12.35
2018-04-01T03:38:53.356Z,13.75
2018-04-01T03:41:20.332Z,13.35
2018-04-01T03:43:47.299Z,14.55
2018-04-01T03:46:14.432Z,14.00
2018-04-01T03:48:41.408Z,13.48
2018-04-01T03:51:09.156Z,14.50
2018-04-01T03:53:36.891Z,15.18
2018-04-01T03:56:03.967Z,14.38
2018-04-01T03:58:30.941Z,14.63
2018-04-01T04:00:58.769Z,15.35
2018-04-01T04:03:25.744Z,16.00
2018-04-01T04:05:52.719Z,15.57
2018-04-01T04:08:19.711Z,16.17
2018-04-01T04:10:46.672Z,16.98
2018-04-01T04:13:14.408Z,16.67
2018-04-01T04:15:41.468Z,17.50
2018-04-01T04:18:08.620Z,16.25
2018-04-01T04:20:37.304Z,18.10
2018-04-01T04:23:04.456Z,19.25
2018-04-01T04:25:31.440Z,18.48
2018-04-01T04:27:58.413Z,19.33
2018-04-01T04:30:25.393Z,21.83
2018-04-01T04:32:52.517Z,21.75
2018-04-01T04:35:19.488Z,20.30
2018-04-01T04:37:46.755Z,19.75
2018-04-01T04:40:13.738Z,21.75
2018-04-01T04:42:40.721Z,21.08
2018-04-01T04:45:07.696Z,22.70
2018-04-01T04:47:34.745Z,23.25
2018-04-01T04:50:01.717Z,23.25
2018-04-01T04:52:28.774Z,24.10
2018-04-01T04:54:55.739Z,24.80
2018-04-01T04:57:22.729Z,24.08
2018-04-01T04:59:49.714Z,22.40
2018-04-01T05:02:16.674Z,24.33
2018-04-01T05:04:43.864Z,25.73
2018-04-01T05:07:10.836Z,23.33
2018-04-01T05:09:38.591Z,24.17
2018-04-01T05:12:05.575Z,23.12
2018-04-01T05:14:32.777Z,24.80
2018-04-01T05:16:59.933Z,24.30
2018-04-01T05:19:27.233Z,23.80
2018-04-01T05:21:54.213Z,23.87
2018-04-01T05:24:21.195Z,24.63
2018-04-01T05:26:48.956Z,23.40
2018-04-01T05:29:16.722Z,25.23
2018-04-01T05:31:44.679Z,22.05
2018-04-01T05:34:11.670Z,24.48
2018-04-01T05:36:38.670Z,23.65
2018-04-01T05:39:05.651Z,22.55
2018-04-01T05:41:32.627Z,23.45
2018-04-01T05:43:59.625Z,21.73
2018-04-01T05:46:27.384Z,23.48
2018-04-01T05:48:55.125Z,23.58
2018-04-01T05:51:22.136Z,24.27
2018-04-01T05:53:49.111Z,22.87
2018-04-01T05:56:16.133Z,21.87
2018-04-01T05:58:43.116Z,22.83
2018-04-01T06:01:10.093Z,23.48
2018-04-01T06:03:37.092Z,24.05
2018-04-01T06:06:04.282Z,22.98
2018-04-01T06:08:31.267Z,21.70
2018-04-01T06:10:58.244Z,23.35
2018-04-01T06:13:25.234Z,25.60
2018-04-01T06:15:52.240Z,23.40
2018-04-01T06:18:19.270Z,25.42
2018-04-01T06:20:46.477Z,24.02
2018-04-01T06:23:13.444Z,27.40
2018-04-01T06:25:40.448Z,24.70
2018-04-01T06:28:07.445Z,22.30
2018-04-01T06:30:34.538Z,26.40
2018-04-01T06:33:01.504Z,28.30
2018-04-01T06:35:28.504Z,26.65
2018-04-01T06:37:55.500Z,29.10
2018-04-01T06:40:23.232Z,26.02
2018-04-01T06:42:50.355Z,26.40
2018-04-01T06:45:17.360Z,24.80
2018-04-01T06:47:44.335Z,24.25
2018-04-01T06:50:11.328Z,25.02
2018-04-01T06:52:38.403Z,26.92
2018-04-01T06:55:05.419Z,24.25
2018-04-01T06:57:32.411Z,24.10
2018-04-01T06:59:59.634Z,23.10
2018-04-01T07:02:26.783Z,22.87
2018-04-01T07:04:53.937Z,20.52
2018-04-01T07:07:20.999Z,21.67
2018-04-01T07:09:48.240Z,19.20
2018-04-01T07:12:15.485Z,20.08
2018-04-01T07:14:42.797Z,20.15
2018-04-01T07:17:09.764Z,24.23
2018-04-01T07:19:36.747Z,22.10
2018-04-01T07:22:03.780Z,23.65
2018-04-01T07:24:30.841Z,22.55
2018-04-01T07:26:57.812Z,19.02
2018-04-01T07:29:25.557Z,20.17
2018-04-01T07:31:52.519Z,21.27
2018-04-01T07:34:19.746Z,21.42
2018-04-01T07:36:46.715Z,20.92
2018-04-01T07:39:14.660Z,21.37
2018-04-01T07:41:41.640Z,22.70
2018-04-01T07:44:09.377Z,20.83
2018-04-01T07:46:36.357Z,22.55
2018-04-01T07:49:03.321Z,23.50
2018-04-01T07:51:30.411Z,21.42
2018-04-01T07:53:57.568Z,26.00
2018-04-01T07:56:24.711Z,27.58
2018-04-01T07:58:51.688Z,28.12
2018-04-01T08:01:19.522Z,28.62
2018-04-01T08:03:46.496Z,27.05
2018-04-01T08:06:13.475Z,28.55
2018-04-01T08:08:40.452Z,29.65
2018-04-01T08:11:07.619Z,30.15
2018-04-01T08:13:34.594Z,29.30
2018-04-01T08:16:02.352Z,30.50
2018-04-01T08:18:30.096Z,29.67
2018-04-01T08:20:57.088Z,29.20
2018-04-01T08:23:24.131Z,28.95
2018-04-01T08:25:51.052Z,30.05
2018-04-01T08:28:18.311Z,27.92
2018-04-01T08:30:45.290Z,30.58
2018-04-01T08:33:12.272Z,29.40
2018-04-01T08:35:39.257Z,29.85
2018-04-01T08:38:07.018Z,30.10
2018-04-01T08:40:34.772Z,29.27
2018-04-01T08:43:02.539Z,29.45
2018-04-01T08:45:30.293Z,27.20
2018-04-01T08:47:57.284Z,26.73
2018-04-01T08:50:24.263Z,27.02
2018-04-01T08:52:51.281Z,28.35
2018-04-01T08:55:18.261Z,28.10
2018-04-01T08:57:45.327Z,26.15
2018-04-01T09:00:12.327Z,25.50
2018-04-01T09:02:39.308Z,26.65
2018-04-01T09:05:06.500Z,27.25
2018-04-01T09:07:33.492Z,27.37
2018-04-01T09:10:00.477Z,27.58
2018-04-01T09:12:27.670Z,24.50
2018-04-01T09:14:54.644Z,25.92
2018-04-01T09:17:21.619Z,23.98
2018-04-01T09:19:48.592Z,26.95
2018-04-01T09:22:15.577Z,24.65
2018-04-01T09:24:42.767Z,24.52
2018-04-01T09:27:09.908Z,24.50
2018-04-01T09:29:37.036Z,25.00
2018-04-01T09:32:04.023Z,23.40
2018-04-01T09:34:31.764Z,25.08
2018-04-01T09:36:58.800Z,23.27
2018-04-01T09:39:26.027Z,25.27
2018-04-01T09:41:53.291Z,21.23
2018-04-01T09:44:20.270Z,21.20
2018-04-01T09:46:47.418Z,23.17
2018-04-01T09:49:14.423Z,22.50
2018-04-01T09:51:41.480Z,21.27
2018-04-01T09:54:08.476Z,20.73
2018-04-01T09:56:35.708Z,21.67
2018-04-01T09:59:02.869Z,19.85
2018-04-01T10:01:30.356Z,19.92
2018-04-01T10:03:57.840Z,18.80
2018-04-01T10:06:25.317Z,19.95
2018-04-01T10:08:52.796Z,19.50
2018-04-01T10:11:20.491Z,19.37
2018-04-01T10:13:47.953Z,19.65
2018-04-01T10:16:15.527Z,16.87
2018-04-01T10:18:43.148Z,15.15
2018-04-01T10:21:10.872Z,15.40
2018-04-01T10:23:38.330Z,17.95
2018-04-01T10:26:05.860Z,15.80
2018-04-01T10:28:33.328Z,13.25
2018-04-01T10:31:00.792Z,13.90
2018-04-01T10:33:28.268Z,11.45
2018-04-01T10:35:55.746Z,13.80
2018-04-01T10:38:23.220Z,16.37
2018-04-01T10:40:50.903Z,16.33
2018-04-01T10:43:18.385Z,16.52
2018-04-01T10:45:46.092Z,14.85
2018-04-01T10:48:13.571Z,14.32
2018-04-01T10:50:41.158Z,14.70
2018-04-01T10:53:08.631Z,16.52
2018-04-01T10:55:35.620Z,16.17
2018-04-01T10:58:02.621Z,14.98
2018-04-01T11:00:29.603Z,13.23
2018-04-01T11:02:56.591Z,11.90
2018-04-01T11:05:23.635Z,10.40
2018-04-01T11:07:50.633Z,9.27
2018-04-01T11:10:17.633Z,9.70
2018-04-01T11:12:44.704Z,9.87
2018-04-01T11:15:11.711Z,9.47
2018-04-01T11:17:39.452Z,8.30
2018-04-01T11:20:06.428Z,8.93
2018-04-01T11:22:33.430Z,8.50
2018-04-01T11:25:00.403Z,9.97
2018-04-01T11:27:27.515Z,9.03
2018-04-01T11:29:54.523Z,9.93
2018-04-01T11:32:21.655Z,9.53
2018-04-01T11:34:48.804Z,10.43
2018-04-01T11:37:15.823Z,11.27
2018-04-01T11:39:42.800Z,10.17
2018-04-01T11:42:09.945Z,12.40
2018-04-01T11:44:36.924Z,12.10
2018-04-01T11:47:03.897Z,11.00
2018-04-01T11:49:30.930Z,10.70
2018-04-01T11:51:57.935Z,10.20
2018-04-01T11:54:25.088Z,10.27
2018-04-01T11:56:52.125Z,10.10
2018-04-01T11:59:19.059Z,11.07
2018-04-01T12:01:46.104Z,12.98
2018-04-01T12:04:13.104Z,20.30
2018-04-01T12:06:40.108Z,12.35
2018-04-01T12:09:07.149Z,13.10
2018-04-01T12:11:34.132Z,12.15
2018-04-01T12:14:01.383Z,12.70
2018-04-01T12:16:28.369Z,13.32
2018-04-01T12:18:55.356Z,17.50
2018-04-01T12:21:24.059Z,16.15
2018-04-01T12:23:51.066Z,17.95
2018-04-01T12:26:18.040Z,17.67
2018-04-01T12:28:45.033Z,18.70
2018-04-01T12:31:12.009Z,20.27
2018-04-01T12:33:39.178Z,17.37
2018-04-01T12:36:06.164Z,18.15
2018-04-01T12:38:33.135Z,18.23
2018-04-01T12:41:00.335Z,18.73
2018-04-01T12:43:27.312Z,18.30
2018-04-01T12:45:54.326Z,17.10
2018-04-01T12:48:21.476Z,16.80
2018-04-01T12:50:48.457Z,16.58
2018-04-01T12:53:15.442Z,15.55
2018-04-01T12:55:42.579Z,18.15
2018-04-01T12:58:09.600Z,17.95
2018-04-01T13:00:36.582Z,16.58
2018-04-01T13:03:03.728Z,18.33
2018-04-01T13:05:30.737Z,16.73
2018-04-01T13:07:58.472Z,17.95
2018-04-01T13:10:25.625Z,16.10
2018-04-01T13:12:52.675Z,15.02
2018-04-01T13:15:19.980Z,14.15
2018-04-01T13:17:46.955Z,15.10
2018-04-01T13:20:13.948Z,16.00
2018-04-01T13:22:41.700Z,15.60
2018-04-01T13:25:09.453Z,16.45
2018-04-01T13:27:36.453Z,15.00
2018-04-01T13:30:03.659Z,15.93
2018-04-01T13:32:30.650Z,18.48
2018-04-01T13:34:57.957Z,16.92
2018-04-01T13:37:24.972Z,17.45
2018-04-01T13:39:51.960Z,19.30
2018-04-01T13:42:19.126Z,18.35
2018-04-01T13:44:46.323Z,17.12
2018-04-01T13:47:14.645Z,18.37
2018-04-01T13:49:41.803Z,17.65
2018-04-01T13:52:08.798Z,19.08
2018-04-01T13:54:35.802Z,17.35
2018-04-01T13:57:03.028Z,19.60
2018-04-01T13:59:30.159Z,19.87
2018-04-01T14:01:57.155Z,18.73
2018-04-01T14:04:24.152Z,17.87
2018-04-01T14:06:51.133Z,18.50
2018-04-01T14:09:18.232Z,15.10
2018-04-01T14:11:45.327Z,15.02
2018-04-01T14:14:13.080Z,12.70
2018-04-01T14:16:40.061Z,13.70
2018-04-01T14:19:07.058Z,14.98
2018-04-01T14:21:34.049Z,11.98
2018-04-01T14:24:01.039Z,12.77
2018-04-01T14:26:28.017Z,12.65
2018-04-01T14:28:55.276Z,12.70
2018-04-01T14:31:22.272Z,12.20
2018-04-01T14:33:49.570Z,12.32
2018-04-01T14:36:16.569Z,13.70
2018-04-01T14:38:43.561Z,14.90
2018-04-01T14:41:10.546Z,16.62
2018-04-01T14:43:37.567Z,15.63
2018-04-01T14:46:04.561Z,13.40
2018-04-01T14:48:31.566Z,15.63
2018-04-01T14:50:58.544Z,15.07
2018-04-01T14:53:25.548Z,16.57
2018-04-01T14:55:52.542Z,16.07
2018-04-01T14:58:19.505Z,14.97
2018-04-01T15:00:46.489Z,15.57
2018-04-01T15:03:13.532Z,13.90
2018-04-01T15:05:40.577Z,16.67
2018-04-01T15:08:07.544Z,16.67
2018-04-01T15:10:34.517Z,17.23
2018-04-01T15:13:01.514Z,16.67
2018-04-01T15:15:28.678Z,16.67
2018-04-01T15:17:55.651Z,18.07
2018-04-01T15:20:24.057Z,16.77
2018-04-01T15:22:51.052Z,15.67
2018-04-01T15:25:18.200Z,16.73
2018-04-01T15:27:45.212Z,18.00
2018-04-01T15:30:12.661Z,17.10
2018-04-01T15:32:39.621Z,16.30
2018-04-01T15:35:07.628Z,17.80
2018-04-01T15:37:34.601Z,16.07
2018-04-01T15:40:01.716Z,15.80
2018-04-01T15:42:28.721Z,14.97
2018-04-01T15:44:55.724Z,17.17
2018-04-01T15:47:22.787Z,14.55
2018-04-01T15:49:49.779Z,15.75
2018-04-01T15:52:16.899Z,15.40
2018-04-01T15:54:43.840Z,15.40
2018-04-01T15:57:10.828Z,15.55
2018-04-01T15:59:37.803Z,14.30
2018-04-01T16:02:05.003Z,13.23
2018-04-01T16:04:31.998Z,11.85
2018-04-01T16:06:58.981Z,13.93
2018-04-01T16:09:25.955Z,13.18
2018-04-01T16:11:53.176Z,12.77
2018-04-01T16:14:20.308Z,11.55
2018-04-01T16:16:47.449Z,11.77
2018-04-01T16:19:14.434Z,10.63
2018-04-01T16:21:41.437Z,11.52
2018-04-01T16:24:08.592Z,10.10
2018-04-01T16:26:35.577Z,11.45
2018-04-01T16:29:02.582Z,12.02
2018-04-01T16:31:29.722Z,11.93
2018-04-01T16:33:56.888Z,13.10
2018-04-01T16:36:24.036Z,12.25
2018-04-01T16:38:51.040Z,10.23
2018-04-01T16:41:18.018Z,11.73
2018-04-01T16:43:45.162Z,10.40
2018-04-01T16:46:12.216Z,11.77
2018-04-01T16:48:39.217Z,11.43
2018-04-01T16:51:06.331Z,9.70
2018-04-01T16:53:34.812Z,10.35
2018-04-01T16:56:01.797Z,11.27
2018-04-01T16:58:28.790Z,10.27
2018-04-01T17:00:55.848Z,10.20
2018-04-01T17:03:22.826Z,10.13
2018-04-01T17:05:49.824Z,9.80
2018-04-01T17:08:17.000Z,10.25
2018-04-01T17:10:44.071Z,9.93
2018-04-01T17:13:11.064Z,10.50
2018-04-01T17:15:38.036Z,9.85
2018-04-01T17:18:05.296Z,11.75
2018-04-01T17:20:32.444Z,10.63
2018-04-01T17:22:59.596Z,11.73
2018-04-01T17:25:26.564Z,11.95
2018-04-01T17:27:54.304Z,11.48
2018-04-01T17:30:21.279Z,10.50
2018-04-01T17:32:48.264Z,12.48
2018-04-01T17:35:15.377Z,11.30
2018-04-01T17:37:42.496Z,12.80
2018-04-01T17:40:09.478Z,11.23
2018-04-01T17:42:36.575Z,11.98
2018-04-01T17:45:03.642Z,13.00
2018-04-01T17:47:30.772Z,12.20
2018-04-01T17:49:57.756Z,12.32
2018-04-01T17:52:25.708Z,12.48
2018-04-01T17:54:52.692Z,13.40
2018-04-01T17:57:19.673Z,13.73
2018-04-01T17:59:46.660Z,11.70
2018-04-01T18:02:14.628Z,11.93
2018-04-01T18:04:41.803Z,13.15
2018-04-01T18:07:08.809Z,13.38
2018-04-01T18:09:35.784Z,14.27
2018-04-01T18:12:03.844Z,12.35
2018-04-01T18:14:30.887Z,13.30
2018-04-01T18:16:57.895Z,11.25
2018-04-01T18:19:24.882Z,12.35
2018-04-01T18:21:51.866Z,14.85
2018-04-01T18:24:18.837Z,14.07
2018-04-01T18:26:45.817Z,13.60
2018-04-01T18:29:12.808Z,15.02
2018-04-01T18:31:39.786Z,13.70
2018-04-01T18:34:06.765Z,17.27
2018-04-01T18:36:33.806Z,15.25
2018-04-01T18:39:00.786Z,17.00
2018-04-01T18:41:27.805Z,15.15
2018-04-01T18:43:54.791Z,16.75
2018-04-01T18:46:21.764Z,13.77
2018-04-01T18:48:48.748Z,15.82
2018-04-01T18:51:15.716Z,16.55
2018-04-01T18:53:42.697Z,17.67
2018-04-01T18:56:09.672Z,20.40
2018-04-01T18:58:36.684Z,19.50
2018-04-01T19:01:03.787Z,19.17
2018-04-01T19:03:30.738Z,25.27
2018-04-01T19:05:57.781Z,28.10
2018-04-01T19:08:24.758Z,27.37
2018-04-01T19:10:52.488Z,25.15
2018-04-01T19:13:19.536Z,27.08
2018-04-01T19:15:46.708Z,35.03
2018-04-01T19:18:14.369Z,31.30
2018-04-01T19:20:41.905Z,30.77
2018-04-01T19:23:09.376Z,28.95
2018-04-01T19:25:37.287Z,28.50
2018-04-01T19:28:04.813Z,28.08
2018-04-01T19:30:32.272Z,30.90
2018-04-01T19:32:59.813Z,29.45
2018-04-01T19:35:27.271Z,32.75
2018-04-01T19:37:54.966Z,33.70
2018-04-01T19:40:22.529Z,31.50
2018-04-01T19:42:50.260Z,33.17
2018-04-01T19:45:18.031Z,35.35
2018-04-01T19:47:45.496Z,32.78
2018-04-01T19:50:13.254Z,34.08
2018-04-01T19:52:40.711Z,35.03
2018-04-01T19:55:08.235Z,34.45
2018-04-01T19:57:35.652Z,36.45
2018-04-01T20:00:03.338Z,41.33
2018-04-01T20:02:30.800Z,42.67
2018-04-01T20:04:58.276Z,40.10
2018-04-01T20:07:25.735Z,40.90
2018-04-01T20:09:53.215Z,51.10
2018-04-01T20:12:20.980Z,37.03
2018-04-01T20:14:48.468Z,34.15
2018-04-01T20:17:15.942Z,38.00
2018-04-01T20:19:43.724Z,33.60
2018-04-01T20:22:11.373Z,36.63
2018-04-01T20:24:38.832Z,34.15
2018-04-01T20:27:06.348Z,31.90
2018-04-01T20:29:33.825Z,32.95
2018-04-01T20:32:01.291Z,32.63
2018-04-01T20:34:28.744Z,33.28
2018-04-01T20:36:56.444Z,36.15
2018-04-01T20:39:23.896Z,35.72
2018-04-01T20:41:51.410Z,36.33
2018-04-01T20:44:19.168Z,36.13
2018-04-01T20:46:46.661Z,35.10
2018-04-01T20:49:14.393Z,36.03
2018-04-01T20:51:42.069Z,36.55
2018-04-01T20:54:09.562Z,37.80
2018-04-01T20:56:37.022Z,39.22
2018-04-01T20:59:04.472Z,39.25
2018-04-01T21:01:31.946Z,40.47
2018-04-01T21:03:59.427Z,39.30
2018-04-01T21:06:26.907Z,40.00
2018-04-01T21:08:54.618Z,42.80
2018-04-01T21:11:22.082Z,43.20
2018-04-01T21:13:49.540Z,41.28
2018-04-01T21:16:17.031Z,42.45
2018-04-01T21:18:44.712Z,41.37
2018-04-01T21:21:12.272Z,45.05
2018-04-01T21:23:39.727Z,39.50
2018-04-01T21:26:07.224Z,41.78
2018-04-01T21:28:34.682Z,39.05
2018-04-01T21:31:02.317Z,39.80
2018-04-01T21:33:30.556Z,37.90
2018-04-01T21:35:58.084Z,37.60
2018-04-01T21:38:25.540Z,34.08
2018-04-01T21:40:53.126Z,36.55
2018-04-01T21:43:20.592Z,37.90
2018-04-01T21:45:48.051Z,36.53
2018-04-01T21:48:15.535Z,33.25
2018-04-01T21:50:42.997Z,35.17
2018-04-01T21:53:10.467Z,36.67
2018-04-01T21:55:38.128Z,39.00
2018-04-01T21:58:05.587Z,36.55
2018-04-01T22:00:33.064Z,39.03
2018-04-01T22:03:00.588Z,39.38
2018-04-01T22:05:28.349Z,36.10
2018-04-01T22:07:55.815Z,35.70
2018-04-01T22:10:23.277Z,32.47
2018-04-01T22:12:50.739Z,35.75
2018-04-01T22:15:18.295Z,35.92
2018-04-01T22:17:45.780Z,38.72
2018-04-01T22:20:13.315Z,36.45
2018-04-01T22:22:52.395Z,36.72
2018-04-01T22:25:19.912Z,37.70
2018-04-01T22:27:48.145Z,37.35
2018-04-01T22:30:15.611Z,41.65
2018-04-01T22:32:43.240Z,37.42
2018-04-01T22:35:10.704Z,36.63
2018-04-01T22:37:38.188Z,36.15
2018-04-01T22:40:05.669Z,39.15
2018-04-01T22:42:33.425Z,39.95
2018-04-01T22:45:00.884Z,38.17
2018-04-01T22:47:28.344Z,36.97
2018-04-01T22:49:55.840Z,37.17
2018-04-01T22:52:23.563Z,38.60
2018-04-01T22:54:51.041Z,41.95
2018-04-01T22:57:18.707Z,41.42
2018-04-01T22:59:46.169Z,39.65
2018-04-01T23:02:13.704Z,41.70
2018-04-01T23:04:41.498Z,39.03
2018-04-01T23:07:09.173Z,41.05
2018-04-01T23:09:36.636Z,40.85
2018-04-01T23:12:04.126Z,38.28
2018-04-01T23:14:31.636Z,39.33
2018-04-01T23:16:59.097Z,39.33
2018-04-01T23:19:26.831Z,38.78
2018-04-01T23:21:54.530Z,42.20
2018-04-01T23:24:21.991Z,41.15
2018-04-01T23:26:49.472Z,42.75
2018-04-01T23:29:16.956Z,43.60
2018-04-01T23:31:44.412Z,42.38
2018-04-01T23:34:12.200Z,45.95
2018-04-01T23:36:39.969Z,45.92
2018-04-01T23:39:09.601Z,46.58
2018-04-01T23:41:37.120Z,46.17
2018-04-01T23:44:04.614Z,46.90
2018-04-01T23:46:32.847Z,50.63
2018-04-01T23:49:00.314Z,49.55
2018-04-01T23:51:27.839Z,51.70
2018-04-01T23:53:55.543Z,53.30
2018-04-01T23:56:23.016Z,49.88
2018-04-01T23:58:50.506Z,52.05
